CheckWX is a tool to help pilots better visualize weather data.  It is not intended as a substitute for an official pre-flight weather briefing.

12:45:05 UTC

KHST TAF
Homestead ARB Airport
Homestead, Florida, USA
TAF KHST 011100Z 0111/0217 VRB05KT 9999 FEW025 QNH2996INS BECMG 0117/0118 17010KT 9999 VCTS SCT025CB BKN200 QNH2998INS BECMG 0123/0124 20005KT 9999 NSW SCT025 QNH2999INS TX34/0119Z TN25/0210Z

Jul-1@
11:00 UTC

Jul-1 @ 11:00 UTC

Jul-1@
17:00 UTC

Jul-1 @ 17:00 UTC

TAF KHST 011100Z 0111/0217 VRB05KT 9999 FEW025 QNH2996INS

Expired

Wind
  • Variable at 5 KTS
Cloud Levels
  • Few at 2,500' AGL

Jul-1@
17:00 UTC

Jul-1 @ 17:00 UTC

Jul-1@
23:00 UTC

Jul-1 @ 23:00 UTC

BECMG 0117/0118 17010KT 9999 VCTS SCT025CB BKN200 QNH2998INS

Expired

Wind
  • 170° at 10 KTS
Conditions
Area Thunderstorm
Cloud Levels
  • Scattered at 2,500' AGL
  • Broken at 20,000' AGL

Jul-1@
23:00 UTC

Jul-1 @ 23:00 UTC

Jul-2@
17:00 UTC

Jul-2 @ 17:00 UTC

BECMG 0123/0124 20005KT 9999 NSW SCT025 QNH2999INS TX34/0119Z TN25/0210Z

Becoming

Becoming Conditions expected by Thu, Jul 2, 2020 @ 00:00 UTC

Wind
  • 200° at 5 KTS
Conditions
No significant weather
Cloud Levels
  • Scattered at 2,500' AGL